sensor_id;sensor_type;location;lat;lon;timestamp;P1;durP1;ratioP1;P2;durP2;ratioP2
44516;SDS011;30223;17.182;-96.766;2023-06-14T00:00:44;33.58;;;22.17;;
44516;SDS011;30223;17.182;-96.766;2023-06-14T00:03:11;32.33;;;21.33;;
44516;SDS011;30223;17.182;-96.766;2023-06-14T00:05:43;34.15;;;22.67;;
44516;SDS011;30223;17.182;-96.766;2023-06-14T00:08:11;32.17;;;22.17;;
44516;SDS011;30223;17.182;-96.766;2023-06-14T00:10:39;33.05;;;21.55;;
44516;SDS011;30223;17.182;-96.766;2023-06-14T00:13:10;32.20;;;21.13;;
44516;SDS011;30223;17.182;-96.766;2023-06-14T00:15:37;30.10;;;21.50;;
44516;SDS011;30223;17.182;-96.766;2023-06-14T00:18:04;33.08;;;21.75;;
44516;SDS011;30223;17.182;-96.766;2023-06-14T00:20:32;31.13;;;21.73;;
44516;SDS011;30223;17.182;-96.766;2023-06-14T00:22:59;33.45;;;23.30;;
44516;SDS011;30223;17.182;-96.766;2023-06-14T00:25:27;34.35;;;23.80;;
44516;SDS011;30223;17.182;-96.766;2023-06-14T00:27:54;36.75;;;23.58;;
44516;SDS011;30223;17.182;-96.766;2023-06-14T00:30:21;31.60;;;21.95;;
44516;SDS011;30223;17.182;-96.766;2023-06-14T00:32:48;32.45;;;22.45;;
44516;SDS011;30223;17.182;-96.766;2023-06-14T00:35:16;34.57;;;22.00;;
44516;SDS011;30223;17.182;-96.766;2023-06-14T00:37:43;30.70;;;20.45;;
44516;SDS011;30223;17.182;-96.766;2023-06-14T00:40:10;30.90;;;21.85;;
44516;SDS011;30223;17.182;-96.766;2023-06-14T00:42:37;30.00;;;20.83;;
44516;SDS011;30223;17.182;-96.766;2023-06-14T00:45:04;38.60;;;22.77;;
44516;SDS011;30223;17.182;-96.766;2023-06-14T00:47:31;30.50;;;21.88;;
44516;SDS011;30223;17.182;-96.766;2023-06-14T00:49:58;33.25;;;21.23;;
44516;SDS011;30223;17.182;-96.766;2023-06-14T00:52:26;35.37;;;23.67;;
44516;SDS011;30223;17.182;-96.766;2023-06-14T00:54:53;32.33;;;21.77;;
44516;SDS011;30223;17.182;-96.766;2023-06-14T00:57:19;33.58;;;22.98;;
44516;SDS011;30223;17.182;-96.766;2023-06-14T00:59:47;36.47;;;22.35;;
44516;SDS011;30223;17.182;-96.766;2023-06-14T01:02:14;34.45;;;22.45;;
44516;SDS011;30223;17.182;-96.766;2023-06-14T01:04:42;37.83;;;21.90;;
44516;SDS011;30223;17.182;-96.766;2023-06-14T01:12:29;34.92;;;21.65;;
44516;SDS011;30223;17.182;-96.766;2023-06-14T01:15:00;35.83;;;23.58;;
44516;SDS011;30223;17.182;-96.766;2023-06-14T01:17:28;34.70;;;22.77;;
44516;SDS011;30223;17.182;-96.766;2023-06-14T01:22:35;31.33;;;21.00;;
44516;SDS011;30223;17.182;-96.766;2023-06-14T01:25:02;35.38;;;22.38;;
44516;SDS011;30223;17.182;-96.766;2023-06-14T01:27:30;32.55;;;20.70;;
44516;SDS011;30223;17.182;-96.766;2023-06-14T01:29:58;30.77;;;21.40;;
44516;SDS011;30223;17.182;-96.766;2023-06-14T01:32:28;34.08;;;20.95;;
44516;SDS011;30223;17.182;-96.766;2023-06-14T01:34:56;32.80;;;22.77;;
44516;SDS011;30223;17.182;-96.766;2023-06-14T01:37:23;34.53;;;24.55;;
44516;SDS011;30223;17.182;-96.766;2023-06-14T01:39:50;33.03;;;22.63;;
44516;SDS011;30223;17.182;-96.766;2023-06-14T01:42:17;34.38;;;22.08;;
44516;SDS011;30223;17.182;-96.766;2023-06-14T01:44:44;33.15;;;21.60;;
44516;SDS011;30223;17.182;-96.766;2023-06-14T01:47:13;33.58;;;22.10;;
44516;SDS011;30223;17.182;-96.766;2023-06-14T01:49:40;31.50;;;22.13;;
44516;SDS011;30223;17.182;-96.766;2023-06-14T01:52:08;32.05;;;21.15;;
44516;SDS011;30223;17.182;-96.766;2023-06-14T01:54:41;36.92;;;23.77;;
44516;SDS011;30223;17.182;-96.766;2023-06-14T01:57:08;32.50;;;22.60;;
44516;SDS011;30223;17.182;-96.766;2023-06-14T01:59:35;36.03;;;22.45;;
44516;SDS011;30223;17.182;-96.766;2023-06-14T02:02:02;39.45;;;22.55;;
44516;SDS011;30223;17.182;-96.766;2023-06-14T02:04:30;32.28;;;22.00;;
44516;SDS011;30223;17.182;-96.766;2023-06-14T02:06:57;33.40;;;22.60;;
44516;SDS011;30223;17.182;-96.766;2023-06-14T02:09:24;33.45;;;22.90;;
44516;SDS011;30223;17.182;-96.766;2023-06-14T02:11:54;30.58;;;21.38;;
44516;SDS011;30223;17.182;-96.766;2023-06-14T02:14:21;32.03;;;21.58;;
44516;SDS011;30223;17.182;-96.766;2023-06-14T02:16:48;29.77;;;22.15;;
44516;SDS011;30223;17.182;-96.766;2023-06-14T02:19:16;32.83;;;22.23;;
44516;SDS011;30223;17.182;-96.766;2023-06-14T02:21:42;29.48;;;20.80;;
44516;SDS011;30223;17.182;-96.766;2023-06-14T02:24:13;31.58;;;22.58;;
44516;SDS011;30223;17.182;-96.766;2023-06-14T02:26:40;32.92;;;23.00;;
44516;SDS011;30223;17.182;-96.766;2023-06-14T02:29:07;31.42;;;22.88;;
44516;SDS011;30223;17.182;-96.766;2023-06-14T02:34:03;36.72;;;22.70;;
44516;SDS011;30223;17.182;-96.766;2023-06-14T02:36:30;29.77;;;23.13;;
44516;SDS011;30223;17.182;-96.766;2023-06-14T02:38:57;30.35;;;22.63;;
44516;SDS011;30223;17.182;-96.766;2023-06-14T02:41:24;30.40;;;22.98;;
44516;SDS011;30223;17.182;-96.766;2023-06-14T02:43:51;29.92;;;21.45;;
44516;SDS011;30223;17.182;-96.766;2023-06-14T02:46:18;31.08;;;21.27;;
44516;SDS011;30223;17.182;-96.766;2023-06-14T02:48:49;32.97;;;23.92;;
44516;SDS011;30223;17.182;-96.766;2023-06-14T02:51:24;31.92;;;20.90;;
44516;SDS011;30223;17.182;-96.766;2023-06-14T02:53:51;35.42;;;22.95;;
44516;SDS011;30223;17.182;-96.766;2023-06-14T02:56:18;29.70;;;22.05;;
44516;SDS011;30223;17.182;-96.766;2023-06-14T02:58:45;28.45;;;20.92;;
44516;SDS011;30223;17.182;-96.766;2023-06-14T03:03:40;30.80;;;21.52;;
44516;SDS011;30223;17.182;-96.766;2023-06-14T03:06:07;26.58;;;19.98;;
44516;SDS011;30223;17.182;-96.766;2023-06-14T03:08:35;33.33;;;21.52;;
44516;SDS011;30223;17.182;-96.766;2023-06-14T03:13:31;30.52;;;21.67;;
44516;SDS011;30223;17.182;-96.766;2023-06-14T03:15:58;30.73;;;21.60;;
44516;SDS011;30223;17.182;-96.766;2023-06-14T03:18:29;27.40;;;20.50;;
44516;SDS011;30223;17.182;-96.766;2023-06-14T03:21:03;33.63;;;23.58;;
44516;SDS011;30223;17.182;-96.766;2023-06-14T03:23:31;33.97;;;23.48;;
44516;SDS011;30223;17.182;-96.766;2023-06-14T03:25:58;34.00;;;23.92;;
44516;SDS011;30223;17.182;-96.766;2023-06-14T03:28:25;34.28;;;23.88;;
44516;SDS011;30223;17.182;-96.766;2023-06-14T03:30:52;33.22;;;22.63;;
44516;SDS011;30223;17.182;-96.766;2023-06-14T03:33:19;35.22;;;26.52;;
44516;SDS011;30223;17.182;-96.766;2023-06-14T03:35:46;33.00;;;23.60;;
44516;SDS011;30223;17.182;-96.766;2023-06-14T03:38:13;35.85;;;23.23;;
44516;SDS011;30223;17.182;-96.766;2023-06-14T03:40:40;31.40;;;23.30;;
44516;SDS011;30223;17.182;-96.766;2023-06-14T03:43:07;35.40;;;24.02;;
44516;SDS011;30223;17.182;-96.766;2023-06-14T03:45:33;32.92;;;23.80;;
44516;SDS011;30223;17.182;-96.766;2023-06-14T03:48:00;36.83;;;23.85;;
44516;SDS011;30223;17.182;-96.766;2023-06-14T03:50:28;31.85;;;24.13;;
44516;SDS011;30223;17.182;-96.766;2023-06-14T03:52:54;35.92;;;24.02;;
44516;SDS011;30223;17.182;-96.766;2023-06-14T03:55:22;34.10;;;23.45;;
44516;SDS011;30223;17.182;-96.766;2023-06-14T03:57:53;35.63;;;23.40;;
44516;SDS011;30223;17.182;-96.766;2023-06-14T04:00:20;36.33;;;24.88;;
44516;SDS011;30223;17.182;-96.766;2023-06-14T04:02:46;34.10;;;23.65;;
44516;SDS011;30223;17.182;-96.766;2023-06-14T04:05:13;31.92;;;22.45;;
44516;SDS011;30223;17.182;-96.766;2023-06-14T04:07:45;32.13;;;22.98;;
44516;SDS011;30223;17.182;-96.766;2023-06-14T04:10:14;33.47;;;23.95;;
44516;SDS011;30223;17.182;-96.766;2023-06-14T04:12:42;36.30;;;25.55;;
44516;SDS011;30223;17.182;-96.766;2023-06-14T04:15:09;30.88;;;22.35;;
44516;SDS011;30223;17.182;-96.766;2023-06-14T04:17:36;32.17;;;24.10;;
44516;SDS011;30223;17.182;-96.766;2023-06-14T04:20:04;37.50;;;24.33;;
44516;SDS011;30223;17.182;-96.766;2023-06-14T04:22:33;36.22;;;23.58;;
44516;SDS011;30223;17.182;-96.766;2023-06-14T04:25:01;32.72;;;22.83;;
44516;SDS011;30223;17.182;-96.766;2023-06-14T04:27:31;33.53;;;23.15;;
44516;SDS011;30223;17.182;-96.766;2023-06-14T04:30:00;37.88;;;22.02;;
44516;SDS011;30223;17.182;-96.766;2023-06-14T04:32:27;34.47;;;23.25;;
44516;SDS011;30223;17.182;-96.766;2023-06-14T04:35:05;37.88;;;23.13;;
44516;SDS011;30223;17.182;-96.766;2023-06-14T04:39:59;33.10;;;22.45;;
44516;SDS011;30223;17.182;-96.766;2023-06-14T04:42:26;30.13;;;21.17;;
44516;SDS011;30223;17.182;-96.766;2023-06-14T04:44:57;29.98;;;22.35;;
44516;SDS011;30223;17.182;-96.766;2023-06-14T04:47:24;36.33;;;22.67;;
44516;SDS011;30223;17.182;-96.766;2023-06-14T04:49:56;32.60;;;23.88;;
44516;SDS011;30223;17.182;-96.766;2023-06-14T04:52:23;30.10;;;21.52;;
44516;SDS011;30223;17.182;-96.766;2023-06-14T04:54:52;28.48;;;20.25;;
44516;SDS011;30223;17.182;-96.766;2023-06-14T04:57:22;31.63;;;21.05;;
44516;SDS011;30223;17.182;-96.766;2023-06-14T04:59:50;26.85;;;20.42;;
44516;SDS011;30223;17.182;-96.766;2023-06-14T05:02:23;34.70;;;22.50;;
44516;SDS011;30223;17.182;-96.766;2023-06-14T05:04:51;34.58;;;20.25;;
44516;SDS011;30223;17.182;-96.766;2023-06-14T05:07:18;31.40;;;23.25;;
44516;SDS011;30223;17.182;-96.766;2023-06-14T05:09:45;33.45;;;22.35;;
44516;SDS011;30223;17.182;-96.766;2023-06-14T05:12:12;34.25;;;22.02;;
44516;SDS011;30223;17.182;-96.766;2023-06-14T05:14:39;32.85;;;22.25;;
44516;SDS011;30223;17.182;-96.766;2023-06-14T05:17:06;29.08;;;19.45;;
44516;SDS011;30223;17.182;-96.766;2023-06-14T05:19:33;40.03;;;22.17;;
44516;SDS011;30223;17.182;-96.766;2023-06-14T05:22:00;29.52;;;21.35;;
44516;SDS011;30223;17.182;-96.766;2023-06-14T05:24:28;27.65;;;20.88;;
44516;SDS011;30223;17.182;-96.766;2023-06-14T05:26:58;27.85;;;20.75;;
44516;SDS011;30223;17.182;-96.766;2023-06-14T05:29:24;28.23;;;20.17;;
44516;SDS011;30223;17.182;-96.766;2023-06-14T05:32:02;32.22;;;21.60;;
44516;SDS011;30223;17.182;-96.766;2023-06-14T05:34:37;34.28;;;22.92;;
44516;SDS011;30223;17.182;-96.766;2023-06-14T05:37:03;32.08;;;20.15;;
44516;SDS011;30223;17.182;-96.766;2023-06-14T05:39:30;28.77;;;21.10;;
44516;SDS011;30223;17.182;-96.766;2023-06-14T05:41:58;29.88;;;21.08;;
44516;SDS011;30223;17.182;-96.766;2023-06-14T05:44:25;27.13;;;19.02;;
44516;SDS011;30223;17.182;-96.766;2023-06-14T05:46:51;32.10;;;21.30;;
44516;SDS011;30223;17.182;-96.766;2023-06-14T05:49:18;30.17;;;19.63;;
44516;SDS011;30223;17.182;-96.766;2023-06-14T05:51:45;29.35;;;20.23;;
44516;SDS011;30223;17.182;-96.766;2023-06-14T05:54:12;29.13;;;19.83;;
44516;SDS011;30223;17.182;-96.766;2023-06-14T05:56:38;31.05;;;20.92;;
44516;SDS011;30223;17.182;-96.766;2023-06-14T05:59:05;31.38;;;21.33;;
44516;SDS011;30223;17.182;-96.766;2023-06-14T06:01:32;31.08;;;19.77;;
44516;SDS011;30223;17.182;-96.766;2023-06-14T06:04:02;34.00;;;20.92;;
44516;SDS011;30223;17.182;-96.766;2023-06-14T06:06:29;30.88;;;19.83;;
44516;SDS011;30223;17.182;-96.766;2023-06-14T06:08:55;32.13;;;21.42;;
44516;SDS011;30223;17.182;-96.766;2023-06-14T06:11:23;28.63;;;20.77;;
44516;SDS011;30223;17.182;-96.766;2023-06-14T06:13:49;31.08;;;21.67;;
44516;SDS011;30223;17.182;-96.766;2023-06-14T06:16:16;30.08;;;20.58;;
44516;SDS011;30223;17.182;-96.766;2023-06-14T06:18:43;38.95;;;23.38;;
44516;SDS011;30223;17.182;-96.766;2023-06-14T06:21:10;32.00;;;22.33;;
44516;SDS011;30223;17.182;-96.766;2023-06-14T06:23:36;34.38;;;21.80;;
44516;SDS011;30223;17.182;-96.766;2023-06-14T06:26:03;29.10;;;21.02;;
44516;SDS011;30223;17.182;-96.766;2023-06-14T06:28:30;32.92;;;23.88;;
44516;SDS011;30223;17.182;-96.766;2023-06-14T06:30:57;34.33;;;20.48;;
44516;SDS011;30223;17.182;-96.766;2023-06-14T06:33:24;34.42;;;22.90;;
44516;SDS011;30223;17.182;-96.766;2023-06-14T06:35:51;32.78;;;21.88;;
44516;SDS011;30223;17.182;-96.766;2023-06-14T06:38:18;29.00;;;20.80;;
44516;SDS011;30223;17.182;-96.766;2023-06-14T06:40:44;30.45;;;21.75;;
44516;SDS011;30223;17.182;-96.766;2023-06-14T06:43:11;30.63;;;21.48;;
44516;SDS011;30223;17.182;-96.766;2023-06-14T06:45:42;29.40;;;20.60;;
44516;SDS011;30223;17.182;-96.766;2023-06-14T06:48:09;29.50;;;20.88;;
44516;SDS011;30223;17.182;-96.766;2023-06-14T06:50:36;31.27;;;20.40;;
44516;SDS011;30223;17.182;-96.766;2023-06-14T06:53:03;31.98;;;21.90;;
44516;SDS011;30223;17.182;-96.766;2023-06-14T06:55:30;35.05;;;21.48;;
44516;SDS011;30223;17.182;-96.766;2023-06-14T06:57:57;33.50;;;20.73;;
44516;SDS011;30223;17.182;-96.766;2023-06-14T07:00:25;35.13;;;22.77;;
44516;SDS011;30223;17.182;-96.766;2023-06-14T07:02:52;30.63;;;20.23;;
44516;SDS011;30223;17.182;-96.766;2023-06-14T07:05:20;31.48;;;19.55;;
44516;SDS011;30223;17.182;-96.766;2023-06-14T07:07:47;30.75;;;19.25;;
44516;SDS011;30223;17.182;-96.766;2023-06-14T07:10:14;29.95;;;21.55;;
44516;SDS011;30223;17.182;-96.766;2023-06-14T07:12:40;29.48;;;20.33;;
44516;SDS011;30223;17.182;-96.766;2023-06-14T07:15:07;31.98;;;20.00;;
44516;SDS011;30223;17.182;-96.766;2023-06-14T07:17:34;33.50;;;20.55;;
44516;SDS011;30223;17.182;-96.766;2023-06-14T07:20:02;28.40;;;19.17;;
44516;SDS011;30223;17.182;-96.766;2023-06-14T07:22:33;32.72;;;19.90;;
44516;SDS011;30223;17.182;-96.766;2023-06-14T07:25:00;30.38;;;19.63;;
44516;SDS011;30223;17.182;-96.766;2023-06-14T07:27:28;30.42;;;19.58;;
44516;SDS011;30223;17.182;-96.766;2023-06-14T07:29:54;28.58;;;18.42;;
44516;SDS011;30223;17.182;-96.766;2023-06-14T07:32:21;28.80;;;18.63;;
44516;SDS011;30223;17.182;-96.766;2023-06-14T07:34:48;32.30;;;20.20;;
44516;SDS011;30223;17.182;-96.766;2023-06-14T07:37:15;31.52;;;18.50;;
44516;SDS011;30223;17.182;-96.766;2023-06-14T07:39:42;25.65;;;18.35;;
44516;SDS011;30223;17.182;-96.766;2023-06-14T07:42:08;27.50;;;18.25;;
44516;SDS011;30223;17.182;-96.766;2023-06-14T07:44:36;28.83;;;19.85;;
44516;SDS011;30223;17.182;-96.766;2023-06-14T07:47:02;33.05;;;20.52;;
44516;SDS011;30223;17.182;-96.766;2023-06-14T07:49:29;28.00;;;18.80;;
44516;SDS011;30223;17.182;-96.766;2023-06-14T07:51:56;27.50;;;18.63;;
44516;SDS011;30223;17.182;-96.766;2023-06-14T07:54:24;28.20;;;18.92;;
44516;SDS011;30223;17.182;-96.766;2023-06-14T07:56:52;25.23;;;17.75;;
44516;SDS011;30223;17.182;-96.766;2023-06-14T07:59:18;25.83;;;16.95;;
44516;SDS011;30223;17.182;-96.766;2023-06-14T08:01:45;26.80;;;17.70;;
44516;SDS011;30223;17.182;-96.766;2023-06-14T08:04:13;27.55;;;16.92;;
44516;SDS011;30223;17.182;-96.766;2023-06-14T08:06:40;29.25;;;18.77;;
44516;SDS011;30223;17.182;-96.766;2023-06-14T08:09:11;26.52;;;17.30;;
44516;SDS011;30223;17.182;-96.766;2023-06-14T08:11:39;27.00;;;17.15;;
44516;SDS011;30223;17.182;-96.766;2023-06-14T08:14:05;28.95;;;20.55;;
44516;SDS011;30223;17.182;-96.766;2023-06-14T08:16:32;26.52;;;16.85;;
44516;SDS011;30223;17.182;-96.766;2023-06-14T08:18:59;24.98;;;17.17;;
44516;SDS011;30223;17.182;-96.766;2023-06-14T08:21:26;27.17;;;17.77;;
44516;SDS011;30223;17.182;-96.766;2023-06-14T08:23:54;28.45;;;17.25;;
44516;SDS011;30223;17.182;-96.766;2023-06-14T08:26:22;25.73;;;16.73;;
44516;SDS011;30223;17.182;-96.766;2023-06-14T08:28:48;24.95;;;17.25;;
44516;SDS011;30223;17.182;-96.766;2023-06-14T08:31:15;23.65;;;16.88;;
44516;SDS011;30223;17.182;-96.766;2023-06-14T08:33:42;24.55;;;18.17;;
44516;SDS011;30223;17.182;-96.766;2023-06-14T08:36:09;27.25;;;17.88;;
44516;SDS011;30223;17.182;-96.766;2023-06-14T08:38:37;29.65;;;17.83;;
44516;SDS011;30223;17.182;-96.766;2023-06-14T08:41:04;25.52;;;17.23;;
44516;SDS011;30223;17.182;-96.766;2023-06-14T08:43:32;27.05;;;17.55;;
44516;SDS011;30223;17.182;-96.766;2023-06-14T08:46:00;26.05;;;17.98;;
44516;SDS011;30223;17.182;-96.766;2023-06-14T08:48:29;27.30;;;17.90;;
44516;SDS011;30223;17.182;-96.766;2023-06-14T08:50:59;22.98;;;16.15;;
44516;SDS011;30223;17.182;-96.766;2023-06-14T08:53:32;24.90;;;17.33;;
44516;SDS011;30223;17.182;-96.766;2023-06-14T08:56:02;26.88;;;16.50;;
44516;SDS011;30223;17.182;-96.766;2023-06-14T08:58:32;24.58;;;17.13;;
44516;SDS011;30223;17.182;-96.766;2023-06-14T09:01:02;27.13;;;17.80;;
44516;SDS011;30223;17.182;-96.766;2023-06-14T09:03:29;27.55;;;17.60;;
44516;SDS011;30223;17.182;-96.766;2023-06-14T09:05:56;24.48;;;16.17;;
44516;SDS011;30223;17.182;-96.766;2023-06-14T09:08:27;24.83;;;15.95;;
44516;SDS011;30223;17.182;-96.766;2023-06-14T09:10:58;29.63;;;16.60;;
44516;SDS011;30223;17.182;-96.766;2023-06-14T09:13:27;23.95;;;15.68;;
44516;SDS011;30223;17.182;-96.766;2023-06-14T09:15:54;28.10;;;16.90;;
44516;SDS011;30223;17.182;-96.766;2023-06-14T09:18:21;26.10;;;15.35;;
44516;SDS011;30223;17.182;-96.766;2023-06-14T09:20:48;24.10;;;15.30;;
44516;SDS011;30223;17.182;-96.766;2023-06-14T09:23:17;21.77;;;15.93;;
44516;SDS011;30223;17.182;-96.766;2023-06-14T09:25:47;25.30;;;17.45;;
44516;SDS011;30223;17.182;-96.766;2023-06-14T09:28:14;26.73;;;15.90;;
44516;SDS011;30223;17.182;-96.766;2023-06-14T09:30:41;23.40;;;14.70;;
44516;SDS011;30223;17.182;-96.766;2023-06-14T09:33:08;23.98;;;14.30;;
44516;SDS011;30223;17.182;-96.766;2023-06-14T09:35:34;25.63;;;16.55;;
44516;SDS011;30223;17.182;-96.766;2023-06-14T09:38:01;22.40;;;15.45;;
44516;SDS011;30223;17.182;-96.766;2023-06-14T09:40:28;21.70;;;15.27;;
44516;SDS011;30223;17.182;-96.766;2023-06-14T09:43:01;23.58;;;16.50;;
44516;SDS011;30223;17.182;-96.766;2023-06-14T09:45:33;24.55;;;16.30;;
44516;SDS011;30223;17.182;-96.766;2023-06-14T09:48:00;25.63;;;16.08;;
44516;SDS011;30223;17.182;-96.766;2023-06-14T09:50:28;25.17;;;15.63;;
44516;SDS011;30223;17.182;-96.766;2023-06-14T09:52:55;21.88;;;16.05;;
44516;SDS011;30223;17.182;-96.766;2023-06-14T09:55:34;21.45;;;14.20;;
44516;SDS011;30223;17.182;-96.766;2023-06-14T09:58:04;23.50;;;16.08;;
44516;SDS011;30223;17.182;-96.766;2023-06-14T10:00:32;21.40;;;15.40;;
44516;SDS011;30223;17.182;-96.766;2023-06-14T10:03:00;22.48;;;15.65;;
44516;SDS011;30223;17.182;-96.766;2023-06-14T10:05:42;21.42;;;13.98;;
44516;SDS011;30223;17.182;-96.766;2023-06-14T10:08:13;25.23;;;16.73;;
44516;SDS011;30223;17.182;-96.766;2023-06-14T10:10:42;20.38;;;14.48;;
44516;SDS011;30223;17.182;-96.766;2023-06-14T10:13:10;21.88;;;15.05;;
44516;SDS011;30223;17.182;-96.766;2023-06-14T10:24:10;20.60;;;14.10;;
44516;SDS011;30223;17.182;-96.766;2023-06-14T10:26:50;26.55;;;16.23;;
44516;SDS011;30223;17.182;-96.766;2023-06-14T10:29:18;22.40;;;14.00;;
44516;SDS011;30223;17.182;-96.766;2023-06-14T10:31:48;23.30;;;14.40;;
44516;SDS011;30223;17.182;-96.766;2023-06-14T10:34:23;23.15;;;14.70;;
44516;SDS011;30223;17.182;-96.766;2023-06-14T10:39:28;23.38;;;15.10;;
44516;SDS011;30223;17.182;-96.766;2023-06-14T10:41:56;21.58;;;14.15;;
44516;SDS011;30223;17.182;-96.766;2023-06-14T10:46:53;23.15;;;15.75;;
44516;SDS011;30223;17.182;-96.766;2023-06-14T10:49:21;22.85;;;14.50;;
44516;SDS011;30223;17.182;-96.766;2023-06-14T10:52:13;21.73;;;14.25;;
44516;SDS011;30223;17.182;-96.766;2023-06-14T10:55:06;20.60;;;13.30;;
44516;SDS011;30223;17.182;-96.766;2023-06-14T10:57:42;23.30;;;13.68;;
44516;SDS011;30223;17.182;-96.766;2023-06-14T11:00:17;22.40;;;14.80;;
44516;SDS011;30223;17.182;-96.766;2023-06-14T11:02:51;21.67;;;14.80;;
44516;SDS011;30223;17.182;-96.766;2023-06-14T11:10:59;22.48;;;14.93;;
44516;SDS011;30223;17.182;-96.766;2023-06-14T11:13:26;17.75;;;13.75;;
44516;SDS011;30223;17.182;-96.766;2023-06-14T11:15:54;19.90;;;14.02;;
44516;SDS011;30223;17.182;-96.766;2023-06-14T11:18:23;19.65;;;14.93;;
44516;SDS011;30223;17.182;-96.766;2023-06-14T11:20:50;18.70;;;13.50;;
44516;SDS011;30223;17.182;-96.766;2023-06-14T11:23:17;18.90;;;13.65;;
44516;SDS011;30223;17.182;-96.766;2023-06-14T11:25:49;19.50;;;12.93;;
44516;SDS011;30223;17.182;-96.766;2023-06-14T11:28:19;19.80;;;12.88;;
44516;SDS011;30223;17.182;-96.766;2023-06-14T11:30:47;23.00;;;13.68;;
44516;SDS011;30223;17.182;-96.766;2023-06-14T11:33:18;20.10;;;14.38;;
44516;SDS011;30223;17.182;-96.766;2023-06-14T11:35:44;19.40;;;13.40;;
44516;SDS011;30223;17.182;-96.766;2023-06-14T11:38:11;19.92;;;14.20;;
44516;SDS011;30223;17.182;-96.766;2023-06-14T11:40:38;22.15;;;13.57;;
44516;SDS011;30223;17.182;-96.766;2023-06-14T11:43:05;21.15;;;13.52;;
44516;SDS011;30223;17.182;-96.766;2023-06-14T11:45:32;21.23;;;14.30;;
44516;SDS011;30223;17.182;-96.766;2023-06-14T11:47:59;22.63;;;14.95;;
44516;SDS011;30223;17.182;-96.766;2023-06-14T11:50:28;22.05;;;14.10;;
44516;SDS011;30223;17.182;-96.766;2023-06-14T11:52:55;20.30;;;13.38;;
44516;SDS011;30223;17.182;-96.766;2023-06-14T11:55:25;20.02;;;13.40;;
44516;SDS011;30223;17.182;-96.766;2023-06-14T11:57:54;18.65;;;13.45;;
44516;SDS011;30223;17.182;-96.766;2023-06-14T12:00:28;22.63;;;13.75;;
44516;SDS011;30223;17.182;-96.766;2023-06-14T12:02:57;20.05;;;13.73;;
44516;SDS011;30223;17.182;-96.766;2023-06-14T12:05:25;21.65;;;14.38;;
44516;SDS011;30223;17.182;-96.766;2023-06-14T12:08:01;19.52;;;13.88;;
44516;SDS011;30223;17.182;-96.766;2023-06-14T12:10:31;21.17;;;13.38;;
44516;SDS011;30223;17.182;-96.766;2023-06-14T12:13:09;20.67;;;13.27;;
44516;SDS011;30223;17.182;-96.766;2023-06-14T12:15:36;18.45;;;12.70;;
44516;SDS011;30223;17.182;-96.766;2023-06-14T12:18:06;19.15;;;12.80;;
44516;SDS011;30223;17.182;-96.766;2023-06-14T12:20:33;18.85;;;13.02;;
44516;SDS011;30223;17.182;-96.766;2023-06-14T12:23:02;24.03;;;15.07;;
44516;SDS011;30223;17.182;-96.766;2023-06-14T12:25:31;18.57;;;13.37;;
44516;SDS011;30223;17.182;-96.766;2023-06-14T12:28:08;19.25;;;12.82;;
44516;SDS011;30223;17.182;-96.766;2023-06-14T12:30:36;23.42;;;13.93;;
44516;SDS011;30223;17.182;-96.766;2023-06-14T12:33:03;23.45;;;14.52;;
44516;SDS011;30223;17.182;-96.766;2023-06-14T12:35:31;21.00;;;14.50;;
44516;SDS011;30223;17.182;-96.766;2023-06-14T12:37:58;19.98;;;13.90;;
44516;SDS011;30223;17.182;-96.766;2023-06-14T12:40:25;22.13;;;13.52;;
44516;SDS011;30223;17.182;-96.766;2023-06-14T12:42:51;18.23;;;12.40;;
44516;SDS011;30223;17.182;-96.766;2023-06-14T12:45:18;18.95;;;13.68;;
44516;SDS011;30223;17.182;-96.766;2023-06-14T12:47:45;18.77;;;12.52;;
44516;SDS011;30223;17.182;-96.766;2023-06-14T12:50:12;20.77;;;13.02;;
44516;SDS011;30223;17.182;-96.766;2023-06-14T12:52:39;23.65;;;13.10;;
44516;SDS011;30223;17.182;-96.766;2023-06-14T12:55:05;18.95;;;12.75;;
44516;SDS011;30223;17.182;-96.766;2023-06-14T12:57:33;20.90;;;13.13;;
44516;SDS011;30223;17.182;-96.766;2023-06-14T13:00:02;21.13;;;14.30;;
44516;SDS011;30223;17.182;-96.766;2023-06-14T13:02:30;21.52;;;12.60;;
44516;SDS011;30223;17.182;-96.766;2023-06-14T13:04:57;18.05;;;11.68;;
44516;SDS011;30223;17.182;-96.766;2023-06-14T13:07:24;18.10;;;12.60;;
44516;SDS011;30223;17.182;-96.766;2023-06-14T13:09:51;16.77;;;11.57;;
44516;SDS011;30223;17.182;-96.766;2023-06-14T13:12:17;20.60;;;14.05;;
44516;SDS011;30223;17.182;-96.766;2023-06-14T13:14:45;19.27;;;11.75;;
44516;SDS011;30223;17.182;-96.766;2023-06-14T13:17:12;20.20;;;13.48;;
44516;SDS011;30223;17.182;-96.766;2023-06-14T13:19:38;20.52;;;13.18;;
44516;SDS011;30223;17.182;-96.766;2023-06-14T13:22:06;17.48;;;12.90;;
44516;SDS011;30223;17.182;-96.766;2023-06-14T13:24:34;18.75;;;12.35;;
44516;SDS011;30223;17.182;-96.766;2023-06-14T13:27:01;19.52;;;12.82;;
44516;SDS011;30223;17.182;-96.766;2023-06-14T13:29:27;20.15;;;13.68;;
44516;SDS011;30223;17.182;-96.766;2023-06-14T13:31:56;18.45;;;12.88;;
44516;SDS011;30223;17.182;-96.766;2023-06-14T13:34:23;19.17;;;13.20;;
44516;SDS011;30223;17.182;-96.766;2023-06-14T13:36:49;18.65;;;12.05;;
44516;SDS011;30223;17.182;-96.766;2023-06-14T13:39:16;19.60;;;12.52;;
44516;SDS011;30223;17.182;-96.766;2023-06-14T13:41:43;18.70;;;12.32;;
44516;SDS011;30223;17.182;-96.766;2023-06-14T13:44:10;18.95;;;12.75;;
44516;SDS011;30223;17.182;-96.766;2023-06-14T13:46:39;19.25;;;11.93;;
44516;SDS011;30223;17.182;-96.766;2023-06-14T13:49:08;18.38;;;11.80;;
44516;SDS011;30223;17.182;-96.766;2023-06-14T13:51:35;20.58;;;13.38;;
44516;SDS011;30223;17.182;-96.766;2023-06-14T13:54:02;17.17;;;12.75;;
44516;SDS011;30223;17.182;-96.766;2023-06-14T13:56:29;19.35;;;13.40;;
44516;SDS011;30223;17.182;-96.766;2023-06-14T13:58:56;18.60;;;12.23;;
44516;SDS011;30223;17.182;-96.766;2023-06-14T14:01:22;18.83;;;12.20;;
44516;SDS011;30223;17.182;-96.766;2023-06-14T14:03:51;21.03;;;12.93;;
44516;SDS011;30223;17.182;-96.766;2023-06-14T14:06:17;19.02;;;12.07;;
44516;SDS011;30223;17.182;-96.766;2023-06-14T14:08:44;18.00;;;12.45;;
44516;SDS011;30223;17.182;-96.766;2023-06-14T14:11:11;20.17;;;13.27;;
44516;SDS011;30223;17.182;-96.766;2023-06-14T14:13:37;19.27;;;13.77;;
44516;SDS011;30223;17.182;-96.766;2023-06-14T14:16:05;17.98;;;11.82;;
44516;SDS011;30223;17.182;-96.766;2023-06-14T14:18:32;20.65;;;14.20;;
44516;SDS011;30223;17.182;-96.766;2023-06-14T14:20:59;20.08;;;12.70;;
44516;SDS011;30223;17.182;-96.766;2023-06-14T14:23:26;19.13;;;12.52;;
44516;SDS011;30223;17.182;-96.766;2023-06-14T14:25:53;18.58;;;12.80;;
44516;SDS011;30223;17.182;-96.766;2023-06-14T14:28:20;19.92;;;12.60;;
44516;SDS011;30223;17.182;-96.766;2023-06-14T14:30:46;19.30;;;13.52;;
44516;SDS011;30223;17.182;-96.766;2023-06-14T14:33:14;22.02;;;13.20;;
44516;SDS011;30223;17.182;-96.766;2023-06-14T14:35:44;23.60;;;14.18;;
44516;SDS011;30223;17.182;-96.766;2023-06-14T14:38:14;22.90;;;13.73;;